EW9475 Los Mochis MX current weather conditions

sailwx.info

Wind from 045 at 4 knots gusting 7

Air temperature 23.3° C
Dewpoint 21.2° C

Last reported at 2020-May-31 14:03 UTC.
Time now 2020-May-31 14:27 UTC

Location: N 25°56' W 109°06'.
View on Google Maps.

See reports from other nearby stations

  
Tides and Currents Weather Stations Pressure Air Temp Water Temp Dewpoint Dewpoint Depression Visibility Wind Speed Wind Dir Waves Ship Positions
date/time (UTC)wind fromknots sea level pressurealtimeterstation pressurevisibilityair tempwater tempwave heightnotes
2020-May-31 14:03 045 4 gusting 7 23.3
2020-May-31 13:53 067 4 gusting 6 22.8
2020-May-31 13:43 045 4 gusting 6 22.8
2020-May-31 13:33 090 6 gusting 8 22.8
2020-May-31 13:23 067 3 gusting 5 22.8
2020-May-31 13:13 067 2 gusting 3 22.8
2020-May-31 13:03 045 3 gusting 5 22.8
2020-May-31 12:53 045 2 gusting 3 22.8
2020-May-31 12:43 090 3 gusting 6 22.8
2020-May-31 12:33 067 4 gusting 6 22.8
2020-May-31 12:23 045 4 gusting 7 22.8
2020-May-31 12:13 045 3 gusting 5 23.3
2020-May-31 12:03 067 5 gusting 7 23.3
2020-May-31 11:53 067 5 gusting 7 23.3
2020-May-31 11:43 067 5 gusting 8 23.3
2020-May-31 11:33 067 5 gusting 7 23.3
2020-May-31 11:23 045 2 gusting 6 23.3
2020-May-31 11:13 067 4 gusting 6 23.3
2020-May-31 11:03 090 4 gusting 6 23.3
2020-May-31 10:53 090 4 gusting 6 23.3
2020-May-31 10:43 067 5 gusting 8 23.3
2020-May-31 10:33 067 4 gusting 7 23.3
2020-May-31 10:23 090 5 gusting 8 23.3
2020-May-31 10:13 067 2 gusting 4 23.3
2020-May-31 10:03 090 6 gusting 9 23.3
2020-May-31 09:53 067 4 gusting 7 23.3
2020-May-31 09:43 067 3 gusting 6 23.3
2020-May-31 09:33 067 2 gusting 6 23.3
2020-May-31 09:23 067 3 gusting 4 23.3
2020-May-31 09:13 067 4 gusting 6 23.3
2020-May-31 09:03 067 1 gusting 3 23.3
2020-May-31 08:53 067 2 gusting 3 23.3
2020-May-31 08:43 045 2 gusting 3 23.3
2020-May-31 08:33 045 1 gusting 2 23.3
2020-May-31 08:23 045 2 gusting 3 23.3
2020-May-31 08:13 067 3 gusting 4 23.3
2020-May-31 08:03 067 1 gusting 3 23.3
2020-May-31 07:53 045 1 gusting 2 23.3
2020-May-31 07:43 067 4 gusting 6 23.3
2020-May-31 07:33 067 2 gusting 4 23.3
2020-May-31 07:23 067 1 gusting 2 23.3
2020-May-31 07:13 067 3 gusting 5 23.3
2020-May-31 07:03 067 2 gusting 2 23.3
2020-May-31 06:53 045 1 gusting 2 23.9
2020-May-31 06:43 067 3 gusting 5 23.9
2020-May-31 06:33 067 4 gusting 6 24.4
2020-May-31 06:23 090 2 gusting 6 24.4
2020-May-31 06:13 090 2 gusting 6 24.4
2020-May-31 06:03 067 3 gusting 6 24.4
2020-May-31 05:53 112 2 gusting 3 24.4
2020-May-31 05:43 090 2 gusting 5 24.4
2020-May-31 05:33 090 2 gusting 5 24.4
2020-May-31 05:23 112 0 gusting 1 24.4
2020-May-31 05:13 090 1 gusting 2 24.4
2020-May-31 05:03 090 2 gusting 6 25.0
2020-May-31 04:53 112 4 gusting 9 25.0
2020-May-31 04:43 090 2 gusting 6 25.0
2020-May-31 04:33 090 3 gusting 6 25.0
2020-May-31 04:23 067 1 gusting 3 25.0
2020-May-31 04:13 135 2 gusting 4 25.6
2020-May-31 04:03 112 1 gusting 3 25.6
2020-May-31 03:53 135 1 gusting 2 25.6
2020-May-31 03:43 112 1 gusting 3 26.1
2020-May-31 03:33 090 0 gusting 1 26.1
2020-May-31 03:23 090 0 gusting 1 26.1
2020-May-31 03:13 135 1 gusting 4 26.7
2020-May-31 03:03 157 1 gusting 3 26.7
2020-May-31 02:53 135 0 gusting 1 26.7
2020-May-31 02:43 112 0 gusting 2 27.2
2020-May-31 02:33 27.2
2020-May-31 02:23 157 0 gusting 1 27.8
2020-May-31 02:13 157 0 gusting 2 27.8
2020-May-31 02:03 180 0 gusting 1 28.3
2020-May-31 01:53 157 0 gusting 1 28.3
2020-May-31 01:43 135 3 gusting 7 28.3
2020-May-31 01:33 180 3 gusting 5 28.9
2020-May-31 01:23 135 3 gusting 5 28.9
2020-May-31 01:13 157 1 gusting 3 29.4
2020-May-31 01:03 157 2 gusting 4 29.4
2020-May-31 00:53 180 4 gusting 6 30.0
2020-May-31 00:43 157 4 gusting 6 30.6
2020-May-31 00:33 225 6 gusting 7 30.6
2020-May-31 00:23 180 5 gusting 7 30.6
2020-May-31 00:13 202 4 gusting 6 31.1
2020-May-31 00:03 225 7 gusting 12 31.1
2020-May-30 23:53 225 5 gusting 9 31.1
2020-May-30 23:43 225 6 gusting 10 31.1
2020-May-30 23:33 225 6 gusting 9 31.7
2020-May-30 23:23 225 6 gusting 9 31.1
2020-May-30 23:13 202 7 gusting 11 31.7
2020-May-30 23:03 225 6 gusting 8 32.2
2020-May-30 22:53 247 3 gusting 5 31.7
2020-May-30 22:43 247 4 gusting 7 32.2
2020-May-30 22:33 202 6 gusting 10 32.2
2020-May-30 22:23 202 8 gusting 15 32.2
2020-May-30 22:13 202 6 gusting 9 32.8
2020-May-30 22:03 202 10 gusting 13 32.8
2020-May-30 21:53 202 7 gusting 11 33.3
2020-May-30 21:43 202 6 gusting 7 32.8
2020-May-30 21:33 202 6 gusting 10 33.3
2020-May-30 21:23 202 5 gusting 8 32.8
2020-May-30 21:13 202 6 gusting 12 33.3
2020-May-30 21:03 202 8 gusting 13 33.9
2020-May-30 20:53 202 6 gusting 9 33.9
2020-May-30 20:43 180 1 gusting 4 33.9
2020-May-30 20:33 202 6 gusting 8 33.9
2020-May-30 20:23 202 6 gusting 8 33.9
2020-May-30 20:13 180 4 gusting 6 33.9
2020-May-30 20:03 225 1 gusting 3 33.3
2020-May-30 19:53 180 3 gusting 6 33.3
2020-May-30 19:43 225 4 gusting 5 33.3
2020-May-30 19:33 180 4 gusting 7 33.9
2020-May-30 19:23 32.8
2020-May-30 19:13 157 2 gusting 3 33.3
2020-May-30 19:03 247 0 gusting 1 32.8
2020-May-30 18:53 292 2 gusting 3 32.2
2020-May-30 18:43 270 1 gusting 3 32.2
2020-May-30 18:33 202 4 gusting 6 32.2
2020-May-30 18:23 202 1 gusting 3 32.2
2020-May-30 18:13 270 4 gusting 6 31.7
2020-May-30 18:03 225 2 gusting 6 31.7
2020-May-30 17:53 112 0 gusting 1 31.1
2020-May-30 17:43 225 2 gusting 3 30.6
2020-May-30 17:33 202 4 gusting 5 30.6
2020-May-30 17:23 225 3 gusting 5 30.6
2020-May-30 17:13 180 1 gusting 2 30.6
2020-May-30 17:03 225 2 gusting 4 30.0
2020-May-30 16:53 202 3 gusting 5 29.4
2020-May-30 16:43 225 2 gusting 4 29.4
2020-May-30 16:33 157 2 gusting 4 29.4
2020-May-30 16:23 112 1 gusting 2 28.9
2020-May-30 16:13 157 3 gusting 5 28.3
2020-May-30 16:03 180 2 gusting 5 28.3
2020-May-30 15:53 180 0 gusting 1 27.8
2020-May-30 15:43 202 3 gusting 5 27.8
2020-May-30 15:33 202 3 gusting 4 27.8
2020-May-30 15:23 112 1 gusting 1 27.8
2020-May-30 15:13 180 2 gusting 4 27.8
2020-May-30 15:03 180 0 gusting 1 27.2
2020-May-30 14:53 135 1 gusting 2 26.7
2020-May-30 14:43 135 1 gusting 2 26.1
2020-May-30 14:33 067 0 gusting 1 25.6
2020-May-30 14:23 045 3 gusting 5 25.0
2020-May-30 14:13 090 0 gusting 2 25.0
2020-May-30 14:03 090 1 gusting 3 24.4
2020-May-30 13:53 067 2 gusting 4 23.9
2020-May-30 13:43 090 1 gusting 3 23.9
2020-May-30 13:33 045 1 gusting 2 23.3
2020-May-30 13:23 090 2 gusting 3 23.3
2020-May-30 13:13 067 3 gusting 5 23.3
2020-May-30 13:03 090 1 gusting 3 22.8
2020-May-30 12:53 045 2 gusting 5 22.8
2020-May-30 12:43 045 1 gusting 3 22.8
2020-May-30 12:33 067 2 gusting 3 22.2
2020-May-30 12:23 045 1 gusting 1 22.2
2020-May-30 12:13 045 2 gusting 3 22.8
2020-May-30 12:03 045 1 gusting 2 22.8
2020-May-30 11:53 045 2 gusting 3 22.8
2020-May-30 11:43 045 2 gusting 3 22.8
2020-May-30 11:33 045 2 gusting 3 22.8
2020-May-30 11:23 045 3 gusting 4 22.8
2020-May-30 11:13 045 1 gusting 2 22.8
2020-May-30 11:03 067 1 gusting 2 22.8
2020-May-30 10:53 045 1 gusting 2 22.8
2020-May-30 10:43 067 1 gusting 3 22.8
2020-May-30 10:33 090 1 gusting 3 22.8
2020-May-30 10:23 067 1 gusting 2 22.8
2020-May-30 10:13 045 0 gusting 1 22.8
2020-May-30 10:03 045 1 gusting 2 22.8
2020-May-30 09:53 067 0 gusting 0 22.8
2020-May-30 09:43 22.8
2020-May-30 09:33 22.8
2020-May-30 09:23 22.8
2020-May-30 09:13 22.8
2020-May-30 09:03 22.8
2020-May-30 08:53 22.8
2020-May-30 08:43 23.3
2020-May-30 08:33 22.8
2020-May-30 08:23 22.8
2020-May-30 08:13 22.8
2020-May-30 08:03 22.8
2020-May-30 07:53 23.3
2020-May-30 07:43 23.3
2020-May-30 07:33 315 0 gusting 0 23.3
2020-May-30 07:23 23.3
2020-May-30 07:13 23.3
2020-May-30 07:03 23.3
2020-May-30 06:53 315 0 gusting 1 23.3
2020-May-30 06:43 23.3
2020-May-30 06:33 23.3
2020-May-30 06:23 315 0 gusting 0 23.3
2020-May-30 06:13 23.9
2020-May-30 06:03 23.9
2020-May-30 05:53 23.9
2020-May-30 05:43 23.9
2020-May-30 05:33 112 0 gusting 2 24.4
2020-May-30 05:23 24.4
2020-May-30 05:13 157 0 gusting 1 24.4
2020-May-30 05:03 157 1 gusting 3 24.4
2020-May-30 04:53 180 0 gusting 1 25.0
2020-May-30 04:43 270 0 gusting 1 25.0
2020-May-30 04:33 270 0 gusting 1 25.0
2020-May-30 04:23 270 0 gusting 0 25.0
2020-May-30 04:13 25.0
2020-May-30 04:03 270 1 gusting 2 25.6
2020-May-30 03:53 270 0 gusting 1 25.6
2020-May-30 03:43 25.6
2020-May-30 03:33 292 1 gusting 2 25.6
2020-May-30 03:23 292 0 gusting 2 25.6
2020-May-30 03:13 247 2 gusting 3 26.1
2020-May-30 03:03 247 1 gusting 2 26.1
2020-May-30 02:53 225 3 gusting 5 26.7
2020-May-30 02:43 202 2 gusting 3 26.7
2020-May-30 02:33 180 2 gusting 3 27.2
2020-May-30 02:23 180 0 gusting 1 27.2
2020-May-30 02:13 180 1 gusting 3 27.2
2020-May-30 02:03 202 3 gusting 5 27.8
2020-May-30 01:53 180 1 gusting 2 28.3
2020-May-30 01:43 180 2 gusting 4 28.3
2020-May-30 01:33 180 5 gusting 6 28.9
2020-May-30 01:23 157 1 gusting 4 29.4
2020-May-30 01:13 202 2 gusting 3 29.4
2020-May-30 01:03 225 1 gusting 2 29.4
2020-May-30 00:53 202 4 gusting 5 29.4
2020-May-30 00:43 225 2 gusting 3 30.0
2020-May-30 00:33 202 3 gusting 4 30.0
2020-May-30 00:23 225 2 gusting 4 30.0
2020-May-30 00:13 202 4 gusting 6 30.0
2020-May-30 00:03 202 4 gusting 7 30.0
2020-May-29 23:53 225 3 gusting 5 30.0
2020-May-29 23:43 225 6 gusting 8 30.0
2020-May-29 23:33 225 4 gusting 6 30.0
2020-May-29 23:23 202 4 gusting 6 30.0
2020-May-29 23:13 225 6 gusting 8 30.6
2020-May-29 23:03 225 4 gusting 6 30.6
2020-May-29 22:53 247 6 gusting 11 30.6
2020-May-29 22:43 225 6 gusting 10 31.1
2020-May-29 22:33 202 6 gusting 10 31.1
2020-May-29 22:23 202 6 gusting 10 31.1
2020-May-29 22:13 202 8 gusting 13 31.1
2020-May-29 22:03 202 6 gusting 11 31.1
2020-May-29 21:53 202 7 gusting 11 31.7
2020-May-29 21:43 202 6 gusting 10 31.1
2020-May-29 21:33 202 5 gusting 8 31.1
2020-May-29 21:23 180 6 gusting 8 31.1
2020-May-29 21:13 202 7 gusting 12 31.1
2020-May-29 21:03 157 6 gusting 11 31.1
2020-May-29 20:53 225 6 gusting 9 31.1
2020-May-29 20:43 202 6 gusting 8 31.1
2020-May-29 20:33 225 6 gusting 8 31.7
2020-May-29 20:23 202 8 gusting 13 31.7
2020-May-29 20:13 180 6 gusting 8 31.7
2020-May-29 20:03 180 6 gusting 12 31.7
2020-May-29 19:53 202 6 gusting 9 32.2
2020-May-29 19:43 180 3 gusting 4 32.2
2020-May-29 19:33 157 1 gusting 2 32.2
2020-May-29 19:23 180 5 gusting 7 32.2
2020-May-29 19:13 112 2 gusting 6 31.7
2020-May-29 19:03 180 5 gusting 7 32.2
2020-May-29 18:53 180 3 gusting 5 31.7
2020-May-29 18:43 112 2 gusting 5 31.7
2020-May-29 18:33 180 1 gusting 4 31.7
2020-May-29 18:23 135 3 gusting 6 31.1
2020-May-29 18:13 180 5 gusting 7 30.6
2020-May-29 18:03 180 1 gusting 4 30.6
2020-May-29 17:53 180 4 gusting 6 30.0
2020-May-29 17:43 157 4 gusting 6 30.0
2020-May-29 17:33 225 1 gusting 4 30.0
2020-May-29 17:23 135 1 gusting 5 30.0
2020-May-29 17:13 090 1 gusting 4 29.4
2020-May-29 17:03 157 2 gusting 4 29.4
2020-May-29 16:53 135 2 gusting 6 28.9
2020-May-29 16:43 112 2 gusting 5 28.9
2020-May-29 16:33 180 2 gusting 5 28.3
2020-May-29 16:23 112 2 gusting 4 28.3
2020-May-29 16:13 157 1 gusting 3 27.8
2020-May-29 16:03 135 2 gusting 6 27.8
2020-May-29 15:53 157 1 gusting 3 27.8
2020-May-29 15:43 135 2 gusting 4 27.2
2020-May-29 15:33 090 3 gusting 6 27.2
2020-May-29 15:23 090 2 gusting 4 26.7
2020-May-29 15:13 067 3 gusting 6 26.1
2020-May-29 15:03 112 3 gusting 6 25.6
2020-May-29 14:53 067 2 gusting 4 25.0
2020-May-29 14:43 090 2 gusting 3 25.0
2020-May-29 14:33 067 6 gusting 8 24.4
2020-May-29 14:23 067 3 gusting 5 23.9
2020-May-29 14:13 090 5 gusting 7 23.9
2020-May-29 14:03 067 4 gusting 6 23.3